sensor_id;sensor_type;location;lat;lon;timestamp;P1;durP1;ratioP1;P2;durP2;ratioP2
24961;SDS011;12992;50.884;13.668;2022-10-23T00:00:33;3.65;;;1.33;;
24961;SDS011;12992;50.884;13.668;2022-10-23T00:02:59;4.03;;;1.60;;
24961;SDS011;12992;50.884;13.668;2022-10-23T00:05:25;6.00;;;1.50;;
24961;SDS011;12992;50.884;13.668;2022-10-23T00:07:52;5.18;;;1.40;;
24961;SDS011;12992;50.884;13.668;2022-10-23T00:10:20;5.78;;;1.35;;
24961;SDS011;12992;50.884;13.668;2022-10-23T00:12:46;3.60;;;1.30;;
24961;SDS011;12992;50.884;13.668;2022-10-23T00:15:12;5.82;;;1.25;;
24961;SDS011;12992;50.884;13.668;2022-10-23T00:17:38;3.97;;;1.50;;
24961;SDS011;12992;50.884;13.668;2022-10-23T00:20:04;4.13;;;1.50;;
24961;SDS011;12992;50.884;13.668;2022-10-23T00:22:31;4.13;;;1.40;;
24961;SDS011;12992;50.884;13.668;2022-10-23T00:24:57;2.30;;;1.20;;
24961;SDS011;12992;50.884;13.668;2022-10-23T00:27:22;2.65;;;1.27;;
24961;SDS011;12992;50.884;13.668;2022-10-23T00:29:48;5.80;;;1.20;;
24961;SDS011;12992;50.884;13.668;2022-10-23T00:32:14;4.45;;;1.52;;
24961;SDS011;12992;50.884;13.668;2022-10-23T00:34:39;5.80;;;1.50;;
24961;SDS011;12992;50.884;13.668;2022-10-23T00:37:05;3.20;;;1.40;;
24961;SDS011;12992;50.884;13.668;2022-10-23T00:39:30;2.40;;;1.25;;
24961;SDS011;12992;50.884;13.668;2022-10-23T00:41:55;4.88;;;1.50;;
24961;SDS011;12992;50.884;13.668;2022-10-23T00:46:46;4.93;;;1.10;;
24961;SDS011;12992;50.884;13.668;2022-10-23T00:49:12;3.20;;;1.90;;
24961;SDS011;12992;50.884;13.668;2022-10-23T00:51:39;5.00;;;1.45;;
24961;SDS011;12992;50.884;13.668;2022-10-23T00:54:07;3.80;;;1.35;;
24961;SDS011;12992;50.884;13.668;2022-10-23T00:56:34;5.88;;;1.20;;
24961;SDS011;12992;50.884;13.668;2022-10-23T00:59:02;5.88;;;1.55;;
24961;SDS011;12992;50.884;13.668;2022-10-23T01:01:27;3.08;;;1.40;;
24961;SDS011;12992;50.884;13.668;2022-10-23T01:03:52;3.17;;;1.30;;
24961;SDS011;12992;50.884;13.668;2022-10-23T01:06:27;3.03;;;1.08;;
24961;SDS011;12992;50.884;13.668;2022-10-23T01:11:44;7.25;;;1.48;;
24961;SDS011;12992;50.884;13.668;2022-10-23T01:14:28;2.17;;;1.23;;
24961;SDS011;12992;50.884;13.668;2022-10-23T01:17:18;3.83;;;1.20;;
24961;SDS011;12992;50.884;13.668;2022-10-23T01:20:13;3.63;;;1.33;;
24961;SDS011;12992;50.884;13.668;2022-10-23T01:28:48;4.68;;;1.40;;
24961;SDS011;12992;50.884;13.668;2022-10-23T01:31:42;3.13;;;1.40;;
24961;SDS011;12992;50.884;13.668;2022-10-23T01:34:26;5.75;;;1.35;;
24961;SDS011;12992;50.884;13.668;2022-10-23T01:36:55;6.93;;;1.23;;
24961;SDS011;12992;50.884;13.668;2022-10-23T01:39:24;7.47;;;1.23;;
24961;SDS011;12992;50.884;13.668;2022-10-23T01:41:55;4.28;;;1.27;;
24961;SDS011;12992;50.884;13.668;2022-10-23T01:44:40;5.82;;;1.60;;
24961;SDS011;12992;50.884;13.668;2022-10-23T01:47:10;4.00;;;1.17;;
24961;SDS011;12992;50.884;13.668;2022-10-23T01:49:53;2.75;;;1.00;;
24961;SDS011;12992;50.884;13.668;2022-10-23T01:52:22;3.50;;;1.27;;
24961;SDS011;12992;50.884;13.668;2022-10-23T01:54:50;3.00;;;1.48;;
24961;SDS011;12992;50.884;13.668;2022-10-23T01:57:19;4.38;;;1.20;;
24961;SDS011;12992;50.884;13.668;2022-10-23T01:59:49;4.03;;;1.48;;
24961;SDS011;12992;50.884;13.668;2022-10-23T02:02:17;3.95;;;1.83;;
24961;SDS011;12992;50.884;13.668;2022-10-23T02:07:24;4.05;;;1.42;;
24961;SDS011;12992;50.884;13.668;2022-10-23T02:09:50;3.58;;;1.30;;
24961;SDS011;12992;50.884;13.668;2022-10-23T02:12:18;4.18;;;1.50;;
24961;SDS011;12992;50.884;13.668;2022-10-23T02:14:56;3.63;;;1.40;;
24961;SDS011;12992;50.884;13.668;2022-10-23T02:25:49;2.78;;;1.10;;
24961;SDS011;12992;50.884;13.668;2022-10-23T02:28:19;4.43;;;1.05;;
24961;SDS011;12992;50.884;13.668;2022-10-23T02:30:54;2.35;;;1.02;;
24961;SDS011;12992;50.884;13.668;2022-10-23T02:33:22;2.75;;;1.20;;
24961;SDS011;12992;50.884;13.668;2022-10-23T02:35:51;1.45;;;1.05;;
24961;SDS011;12992;50.884;13.668;2022-10-23T02:38:31;1.90;;;1.23;;
24961;SDS011;12992;50.884;13.668;2022-10-23T02:41:18;3.20;;;1.00;;
24961;SDS011;12992;50.884;13.668;2022-10-23T02:47:01;2.63;;;1.00;;
24961;SDS011;12992;50.884;13.668;2022-10-23T02:49:46;2.47;;;1.13;;
24961;SDS011;12992;50.884;13.668;2022-10-23T02:57:55;2.80;;;1.13;;
24961;SDS011;12992;50.884;13.668;2022-10-23T03:00:41;4.20;;;1.87;;
24961;SDS011;12992;50.884;13.668;2022-10-23T03:03:16;4.43;;;1.40;;
24961;SDS011;12992;50.884;13.668;2022-10-23T03:05:46;7.65;;;1.38;;
24961;SDS011;12992;50.884;13.668;2022-10-23T03:08:12;1.55;;;0.90;;
24961;SDS011;12992;50.884;13.668;2022-10-23T03:10:39;2.97;;;1.30;;
24961;SDS011;12992;50.884;13.668;2022-10-23T03:13:05;4.10;;;1.00;;
24961;SDS011;12992;50.884;13.668;2022-10-23T03:15:38;3.80;;;1.30;;
24961;SDS011;12992;50.884;13.668;2022-10-23T03:18:04;7.50;;;1.27;;
24961;SDS011;12992;50.884;13.668;2022-10-23T03:20:30;4.22;;;1.20;;
24961;SDS011;12992;50.884;13.668;2022-10-23T03:22:56;2.50;;;0.98;;
24961;SDS011;12992;50.884;13.668;2022-10-23T03:25:21;1.55;;;1.05;;
24961;SDS011;12992;50.884;13.668;2022-10-23T03:27:46;3.53;;;1.10;;
24961;SDS011;12992;50.884;13.668;2022-10-23T03:30:14;3.05;;;1.30;;
24961;SDS011;12992;50.884;13.668;2022-10-23T03:32:41;4.63;;;1.23;;
24961;SDS011;12992;50.884;13.668;2022-10-23T03:35:06;3.17;;;1.20;;
24961;SDS011;12992;50.884;13.668;2022-10-23T03:37:32;5.28;;;1.33;;
24961;SDS011;12992;50.884;13.668;2022-10-23T03:39:59;5.18;;;0.90;;
24961;SDS011;12992;50.884;13.668;2022-10-23T03:42:27;4.07;;;1.35;;
24961;SDS011;12992;50.884;13.668;2022-10-23T03:44:53;5.05;;;1.27;;
24961;SDS011;12992;50.884;13.668;2022-10-23T03:47:18;2.78;;;1.00;;
24961;SDS011;12992;50.884;13.668;2022-10-23T03:49:45;3.63;;;1.10;;
24961;SDS011;12992;50.884;13.668;2022-10-23T03:52:10;3.67;;;1.10;;
24961;SDS011;12992;50.884;13.668;2022-10-23T03:54:35;6.63;;;1.23;;
24961;SDS011;12992;50.884;13.668;2022-10-23T03:57:01;4.85;;;1.13;;
24961;SDS011;12992;50.884;13.668;2022-10-23T03:59:26;8.55;;;1.15;;
24961;SDS011;12992;50.884;13.668;2022-10-23T04:01:52;5.70;;;1.27;;
24961;SDS011;12992;50.884;13.668;2022-10-23T04:04:18;6.30;;;1.30;;
24961;SDS011;12992;50.884;13.668;2022-10-23T04:06:44;3.60;;;1.05;;
24961;SDS011;12992;50.884;13.668;2022-10-23T04:09:09;2.95;;;0.90;;
24961;SDS011;12992;50.884;13.668;2022-10-23T04:11:35;4.47;;;1.00;;
24961;SDS011;12992;50.884;13.668;2022-10-23T04:14:01;5.82;;;1.13;;
24961;SDS011;12992;50.884;13.668;2022-10-23T04:16:27;4.55;;;0.90;;
24961;SDS011;12992;50.884;13.668;2022-10-23T04:18:52;6.28;;;1.30;;
24961;SDS011;12992;50.884;13.668;2022-10-23T04:21:18;4.00;;;1.20;;
24961;SDS011;12992;50.884;13.668;2022-10-23T04:23:43;3.42;;;1.30;;
24961;SDS011;12992;50.884;13.668;2022-10-23T04:26:11;3.53;;;1.33;;
24961;SDS011;12992;50.884;13.668;2022-10-23T04:28:37;8.35;;;1.50;;
24961;SDS011;12992;50.884;13.668;2022-10-23T04:31:02;2.00;;;1.10;;
24961;SDS011;12992;50.884;13.668;2022-10-23T04:33:28;4.85;;;1.20;;
24961;SDS011;12992;50.884;13.668;2022-10-23T04:35:53;2.78;;;0.93;;
24961;SDS011;12992;50.884;13.668;2022-10-23T04:38:18;3.05;;;0.90;;
24961;SDS011;12992;50.884;13.668;2022-10-23T04:40:44;7.93;;;0.95;;
24961;SDS011;12992;50.884;13.668;2022-10-23T04:43:09;5.85;;;1.13;;
24961;SDS011;12992;50.884;13.668;2022-10-23T04:45:37;2.95;;;1.05;;
24961;SDS011;12992;50.884;13.668;2022-10-23T04:48:03;3.05;;;1.15;;
24961;SDS011;12992;50.884;13.668;2022-10-23T04:50:41;4.80;;;1.02;;
24961;SDS011;12992;50.884;13.668;2022-10-23T04:53:27;3.30;;;1.10;;
24961;SDS011;12992;50.884;13.668;2022-10-23T04:56:11;3.72;;;0.90;;
24961;SDS011;12992;50.884;13.668;2022-10-23T04:58:48;3.55;;;1.10;;
24961;SDS011;12992;50.884;13.668;2022-10-23T05:01:14;2.75;;;0.80;;
24961;SDS011;12992;50.884;13.668;2022-10-23T05:03:40;2.67;;;1.05;;
24961;SDS011;12992;50.884;13.668;2022-10-23T05:06:05;2.67;;;0.80;;
24961;SDS011;12992;50.884;13.668;2022-10-23T05:08:39;1.88;;;0.90;;
24961;SDS011;12992;50.884;13.668;2022-10-23T05:11:11;3.75;;;0.88;;
24961;SDS011;12992;50.884;13.668;2022-10-23T05:13:41;3.95;;;1.00;;
24961;SDS011;12992;50.884;13.668;2022-10-23T05:16:07;3.25;;;1.10;;
24961;SDS011;12992;50.884;13.668;2022-10-23T05:18:37;3.95;;;0.80;;
24961;SDS011;12992;50.884;13.668;2022-10-23T05:21:13;3.72;;;0.80;;
24961;SDS011;12992;50.884;13.668;2022-10-23T05:23:47;4.43;;;1.00;;
24961;SDS011;12992;50.884;13.668;2022-10-23T05:26:16;2.28;;;0.88;;
24961;SDS011;12992;50.884;13.668;2022-10-23T05:28:43;2.72;;;0.95;;
24961;SDS011;12992;50.884;13.668;2022-10-23T05:31:12;5.00;;;1.13;;
24961;SDS011;12992;50.884;13.668;2022-10-23T05:33:43;4.30;;;1.00;;
24961;SDS011;12992;50.884;13.668;2022-10-23T05:36:09;2.95;;;1.40;;
24961;SDS011;12992;50.884;13.668;2022-10-23T05:38:38;3.80;;;1.40;;
24961;SDS011;12992;50.884;13.668;2022-10-23T05:41:10;9.90;;;1.70;;
24961;SDS011;12992;50.884;13.668;2022-10-23T05:43:36;4.72;;;1.30;;
24961;SDS011;12992;50.884;13.668;2022-10-23T05:46:21;2.72;;;0.95;;
24961;SDS011;12992;50.884;13.668;2022-10-23T05:49:14;3.47;;;1.83;;
24961;SDS011;12992;50.884;13.668;2022-10-23T05:52:03;4.72;;;1.17;;
24961;SDS011;12992;50.884;13.668;2022-10-23T05:54:34;9.38;;;1.27;;
24961;SDS011;12992;50.884;13.668;2022-10-23T05:57:22;3.47;;;1.17;;
24961;SDS011;12992;50.884;13.668;2022-10-23T05:59:49;3.55;;;0.80;;
24961;SDS011;12992;50.884;13.668;2022-10-23T06:02:38;6.50;;;1.20;;
24961;SDS011;12992;50.884;13.668;2022-10-23T06:05:12;3.30;;;0.90;;
24961;SDS011;12992;50.884;13.668;2022-10-23T06:07:56;2.78;;;0.73;;
24961;SDS011;12992;50.884;13.668;2022-10-23T06:10:23;4.93;;;0.88;;
24961;SDS011;12992;50.884;13.668;2022-10-23T06:12:51;3.83;;;1.00;;
24961;SDS011;12992;50.884;13.668;2022-10-23T06:15:17;4.53;;;1.17;;
24961;SDS011;12992;50.884;13.668;2022-10-23T06:17:54;2.17;;;0.90;;
24961;SDS011;12992;50.884;13.668;2022-10-23T06:20:23;3.63;;;0.60;;
24961;SDS011;12992;50.884;13.668;2022-10-23T06:22:58;2.40;;;0.85;;
24961;SDS011;12992;50.884;13.668;2022-10-23T06:25:49;2.50;;;0.70;;
24961;SDS011;12992;50.884;13.668;2022-10-23T06:28:18;1.17;;;0.60;;
24961;SDS011;12992;50.884;13.668;2022-10-23T06:30:44;3.47;;;0.80;;
24961;SDS011;12992;50.884;13.668;2022-10-23T06:33:09;1.77;;;0.82;;
24961;SDS011;12992;50.884;13.668;2022-10-23T06:35:34;4.43;;;1.60;;
24961;SDS011;12992;50.884;13.668;2022-10-23T06:38:00;3.35;;;0.90;;
24961;SDS011;12992;50.884;13.668;2022-10-23T06:40:35;0.98;;;0.70;;
24961;SDS011;12992;50.884;13.668;2022-10-23T06:43:04;1.48;;;0.90;;
24961;SDS011;12992;50.884;13.668;2022-10-23T06:45:49;4.25;;;1.08;;
24961;SDS011;12992;50.884;13.668;2022-10-23T06:48:14;3.90;;;1.05;;
24961;SDS011;12992;50.884;13.668;2022-10-23T06:51:06;3.22;;;1.10;;
24961;SDS011;12992;50.884;13.668;2022-10-23T06:53:40;2.80;;;0.80;;
24961;SDS011;12992;50.884;13.668;2022-10-23T06:56:31;5.13;;;1.30;;
24961;SDS011;12992;50.884;13.668;2022-10-23T06:58:59;2.45;;;0.85;;
24961;SDS011;12992;50.884;13.668;2022-10-23T07:01:25;1.40;;;0.75;;
24961;SDS011;12992;50.884;13.668;2022-10-23T07:03:54;2.17;;;0.80;;
24961;SDS011;12992;50.884;13.668;2022-10-23T07:06:24;3.85;;;1.08;;
24961;SDS011;12992;50.884;13.668;2022-10-23T07:08:49;2.60;;;1.05;;
24961;SDS011;12992;50.884;13.668;2022-10-23T07:11:44;2.17;;;1.02;;
24961;SDS011;12992;50.884;13.668;2022-10-23T07:14:09;3.53;;;0.95;;
24961;SDS011;12992;50.884;13.668;2022-10-23T07:16:35;6.60;;;1.10;;
24961;SDS011;12992;50.884;13.668;2022-10-23T07:19:01;3.28;;;1.15;;
24961;SDS011;12992;50.884;13.668;2022-10-23T07:21:30;3.70;;;1.00;;
24961;SDS011;12992;50.884;13.668;2022-10-23T07:24:19;4.43;;;1.13;;
24961;SDS011;12992;50.884;13.668;2022-10-23T07:26:45;2.72;;;1.02;;
24961;SDS011;12992;50.884;13.668;2022-10-23T07:29:12;4.00;;;1.30;;
24961;SDS011;12992;50.884;13.668;2022-10-23T07:31:38;3.92;;;1.05;;
24961;SDS011;12992;50.884;13.668;2022-10-23T07:34:29;3.90;;;1.17;;
24961;SDS011;12992;50.884;13.668;2022-10-23T07:37:21;4.20;;;1.17;;
24961;SDS011;12992;50.884;13.668;2022-10-23T07:39:47;4.68;;;1.23;;
24961;SDS011;12992;50.884;13.668;2022-10-23T07:42:12;3.75;;;1.05;;
24961;SDS011;12992;50.884;13.668;2022-10-23T07:44:39;2.47;;;1.17;;
24961;SDS011;12992;50.884;13.668;2022-10-23T07:47:04;4.18;;;1.05;;
24961;SDS011;12992;50.884;13.668;2022-10-23T07:49:30;3.03;;;1.00;;
24961;SDS011;12992;50.884;13.668;2022-10-23T07:51:56;4.20;;;1.00;;
24961;SDS011;12992;50.884;13.668;2022-10-23T07:54:26;4.43;;;1.00;;
24961;SDS011;12992;50.884;13.668;2022-10-23T07:57:10;3.92;;;1.35;;
24961;SDS011;12992;50.884;13.668;2022-10-23T07:59:44;2.88;;;1.10;;
24961;SDS011;12992;50.884;13.668;2022-10-23T08:02:14;3.65;;;1.23;;
24961;SDS011;12992;50.884;13.668;2022-10-23T08:04:41;5.32;;;1.20;;
24961;SDS011;12992;50.884;13.668;2022-10-23T08:07:23;1.95;;;1.20;;
24961;SDS011;12992;50.884;13.668;2022-10-23T08:09:52;5.03;;;1.42;;
24961;SDS011;12992;50.884;13.668;2022-10-23T08:12:17;3.78;;;1.30;;
24961;SDS011;12992;50.884;13.668;2022-10-23T08:14:43;3.63;;;1.35;;
24961;SDS011;12992;50.884;13.668;2022-10-23T08:17:10;3.22;;;1.30;;
24961;SDS011;12992;50.884;13.668;2022-10-23T08:20:00;6.55;;;1.40;;
24961;SDS011;12992;50.884;13.668;2022-10-23T08:22:31;3.70;;;1.55;;
24961;SDS011;12992;50.884;13.668;2022-10-23T08:24:59;2.72;;;1.25;;
24961;SDS011;12992;50.884;13.668;2022-10-23T08:27:24;4.68;;;1.42;;
24961;SDS011;12992;50.884;13.668;2022-10-23T08:29:50;1.75;;;1.25;;
24961;SDS011;12992;50.884;13.668;2022-10-23T08:32:16;1.75;;;1.20;;
24961;SDS011;12992;50.884;13.668;2022-10-23T08:34:56;3.40;;;1.17;;
24961;SDS011;12992;50.884;13.668;2022-10-23T08:37:22;1.92;;;1.50;;
24961;SDS011;12992;50.884;13.668;2022-10-23T08:39:48;3.22;;;1.35;;
24961;SDS011;12992;50.884;13.668;2022-10-23T08:42:18;2.53;;;1.23;;
24961;SDS011;12992;50.884;13.668;2022-10-23T08:47:48;3.05;;;1.23;;
24961;SDS011;12992;50.884;13.668;2022-10-23T08:50:38;3.72;;;1.30;;
24961;SDS011;12992;50.884;13.668;2022-10-23T08:55:50;3.80;;;1.40;;
24961;SDS011;12992;50.884;13.668;2022-10-23T08:58:24;3.47;;;1.67;;
24961;SDS011;12992;50.884;13.668;2022-10-23T09:01:54;3.67;;;1.42;;
24961;SDS011;12992;50.884;13.668;2022-10-23T09:04:06;6.28;;;1.30;;
24961;SDS011;12992;50.884;13.668;2022-10-23T09:06:38;1.92;;;1.00;;
24961;SDS011;12992;50.884;13.668;2022-10-23T09:09:26;1.60;;;1.00;;
24961;SDS011;12992;50.884;13.668;2022-10-23T09:12:06;1.42;;;0.82;;
24961;SDS011;12992;50.884;13.668;2022-10-23T09:14:46;2.80;;;1.25;;
24961;SDS011;12992;50.884;13.668;2022-10-23T09:17:32;3.35;;;1.08;;
24961;SDS011;12992;50.884;13.668;2022-10-23T09:22:45;2.63;;;1.45;;
24961;SDS011;12992;50.884;13.668;2022-10-23T09:25:23;2.60;;;1.30;;
24961;SDS011;12992;50.884;13.668;2022-10-23T09:27:56;2.90;;;1.13;;
24961;SDS011;12992;50.884;13.668;2022-10-23T09:33:12;3.92;;;1.10;;
24961;SDS011;12992;50.884;13.668;2022-10-23T09:36:00;1.67;;;1.00;;
24961;SDS011;12992;50.884;13.668;2022-10-23T09:38:31;3.50;;;0.95;;
24961;SDS011;12992;50.884;13.668;2022-10-23T09:49:17;1.17;;;0.80;;
24961;SDS011;12992;50.884;13.668;2022-10-23T09:51:49;2.75;;;0.80;;
24961;SDS011;12992;50.884;13.668;2022-10-23T09:54:17;1.77;;;0.93;;
24961;SDS011;12992;50.884;13.668;2022-10-23T09:56:47;2.72;;;0.95;;
24961;SDS011;12992;50.884;13.668;2022-10-23T10:01:46;1.97;;;0.67;;
24961;SDS011;12992;50.884;13.668;2022-10-23T10:04:37;2.42;;;1.15;;
24961;SDS011;12992;50.884;13.668;2022-10-23T10:07:11;1.27;;;0.80;;
24961;SDS011;12992;50.884;13.668;2022-10-23T10:09:42;2.20;;;0.70;;
24961;SDS011;12992;50.884;13.668;2022-10-23T10:15:09;4.88;;;0.98;;
24961;SDS011;12992;50.884;13.668;2022-10-23T10:17:56;1.55;;;0.68;;
24961;SDS011;12992;50.884;13.668;2022-10-23T10:23:18;1.17;;;0.60;;
24961;SDS011;12992;50.884;13.668;2022-10-23T10:26:05;2.83;;;0.75;;
24961;SDS011;12992;50.884;13.668;2022-10-23T10:31:23;1.33;;;0.80;;
24961;SDS011;12992;50.884;13.668;2022-10-23T10:36:51;1.63;;;1.10;;
24961;SDS011;12992;50.884;13.668;2022-10-23T10:42:30;3.25;;;1.00;;
24961;SDS011;12992;50.884;13.668;2022-10-23T10:45:17;1.42;;;0.77;;
24961;SDS011;12992;50.884;13.668;2022-10-23T10:48:15;3.17;;;1.60;;
24961;SDS011;12992;50.884;13.668;2022-10-23T10:51:21;3.13;;;1.13;;
24961;SDS011;12992;50.884;13.668;2022-10-23T10:54:00;2.28;;;1.00;;
24961;SDS011;12992;50.884;13.668;2022-10-23T10:58:57;1.67;;;0.90;;
24961;SDS011;12992;50.884;13.668;2022-10-23T11:01:27;3.05;;;0.70;;
24961;SDS011;12992;50.884;13.668;2022-10-23T11:04:02;1.17;;;0.55;;
24961;SDS011;12992;50.884;13.668;2022-10-23T11:06:35;2.58;;;0.75;;
24961;SDS011;12992;50.884;13.668;2022-10-23T11:09:20;1.60;;;0.75;;
24961;SDS011;12992;50.884;13.668;2022-10-23T11:11:49;2.22;;;0.90;;
24961;SDS011;12992;50.884;13.668;2022-10-23T11:14:20;1.02;;;0.80;;
24961;SDS011;12992;50.884;13.668;2022-10-23T11:16:48;1.58;;;0.70;;
24961;SDS011;12992;50.884;13.668;2022-10-23T11:19:20;1.25;;;0.43;;
24961;SDS011;12992;50.884;13.668;2022-10-23T11:24:50;1.88;;;0.47;;
24961;SDS011;12992;50.884;13.668;2022-10-23T11:38:16;0.52;;;0.40;;
24961;SDS011;12992;50.884;13.668;2022-10-23T11:40:49;1.10;;;0.65;;
24961;SDS011;12992;50.884;13.668;2022-10-23T11:43:27;1.67;;;0.57;;
24961;SDS011;12992;50.884;13.668;2022-10-23T11:45:58;1.75;;;0.47;;
24961;SDS011;12992;50.884;13.668;2022-10-23T11:48:37;4.15;;;0.70;;
24961;SDS011;12992;50.884;13.668;2022-10-23T11:51:24;6.65;;;1.02;;
24961;SDS011;12992;50.884;13.668;2022-10-23T11:56:36;1.52;;;0.80;;
24961;SDS011;12992;50.884;13.668;2022-10-23T12:01:57;1.60;;;1.20;;
24961;SDS011;12992;50.884;13.668;2022-10-23T12:04:37;4.03;;;0.90;;
24961;SDS011;12992;50.884;13.668;2022-10-23T12:07:14;1.67;;;0.98;;
24961;SDS011;12992;50.884;13.668;2022-10-23T12:09:45;2.08;;;0.90;;
24961;SDS011;12992;50.884;13.668;2022-10-23T12:12:31;2.63;;;1.00;;
24961;SDS011;12992;50.884;13.668;2022-10-23T12:17:39;3.63;;;1.80;;
24961;SDS011;12992;50.884;13.668;2022-10-23T12:22:45;1.30;;;0.87;;
24961;SDS011;12992;50.884;13.668;2022-10-23T12:39:27;1.80;;;1.10;;
24961;SDS011;12992;50.884;13.668;2022-10-23T12:44:20;3.70;;;1.10;;
24961;SDS011;12992;50.884;13.668;2022-10-23T12:46:49;2.88;;;1.13;;
24961;SDS011;12992;50.884;13.668;2022-10-23T12:49:20;2.63;;;1.30;;
24961;SDS011;12992;50.884;13.668;2022-10-23T12:52:13;2.53;;;1.70;;
24961;SDS011;12992;50.884;13.668;2022-10-23T12:54:40;4.80;;;3.40;;
24961;SDS011;12992;50.884;13.668;2022-10-23T12:59:50;2.35;;;1.08;;
24961;SDS011;12992;50.884;13.668;2022-10-23T13:02:24;5.82;;;2.60;;
24961;SDS011;12992;50.884;13.668;2022-10-23T13:04:52;3.03;;;1.00;;
24961;SDS011;12992;50.884;13.668;2022-10-23T13:07:20;3.78;;;1.58;;
24961;SDS011;12992;50.884;13.668;2022-10-23T13:09:49;3.20;;;1.58;;
24961;SDS011;12992;50.884;13.668;2022-10-23T13:12:24;3.13;;;0.60;;
24961;SDS011;12992;50.884;13.668;2022-10-23T13:14:54;3.25;;;0.95;;
24961;SDS011;12992;50.884;13.668;2022-10-23T13:17:20;2.72;;;0.70;;
24961;SDS011;12992;50.884;13.668;2022-10-23T13:20:09;3.50;;;0.80;;
24961;SDS011;12992;50.884;13.668;2022-10-23T13:22:43;2.67;;;0.90;;
24961;SDS011;12992;50.884;13.668;2022-10-23T13:25:20;4.45;;;0.90;;
24961;SDS011;12992;50.884;13.668;2022-10-23T13:30:41;1.75;;;0.93;;
24961;SDS011;12992;50.884;13.668;2022-10-23T13:36:02;4.57;;;1.30;;
24961;SDS011;12992;50.884;13.668;2022-10-23T13:38:32;2.38;;;0.93;;
24961;SDS011;12992;50.884;13.668;2022-10-23T13:41:00;1.77;;;1.35;;
24961;SDS011;12992;50.884;13.668;2022-10-23T13:43:26;2.33;;;1.40;;
24961;SDS011;12992;50.884;13.668;2022-10-23T13:45:54;2.53;;;1.50;;
24961;SDS011;12992;50.884;13.668;2022-10-23T13:48:20;2.75;;;1.30;;
24961;SDS011;12992;50.884;13.668;2022-10-23T13:50:46;2.38;;;1.50;;
24961;SDS011;12992;50.884;13.668;2022-10-23T13:53:11;3.72;;;1.50;;
24961;SDS011;12992;50.884;13.668;2022-10-23T13:55:38;2.85;;;1.52;;
24961;SDS011;12992;50.884;13.668;2022-10-23T13:58:06;4.07;;;1.60;;
24961;SDS011;12992;50.884;13.668;2022-10-23T14:00:33;3.13;;;1.48;;
24961;SDS011;12992;50.884;13.668;2022-10-23T14:02:58;4.18;;;1.63;;
24961;SDS011;12992;50.884;13.668;2022-10-23T14:05:23;8.07;;;1.85;;
24961;SDS011;12992;50.884;13.668;2022-10-23T14:07:49;4.60;;;1.95;;
24961;SDS011;12992;50.884;13.668;2022-10-23T14:10:14;3.47;;;1.70;;
24961;SDS011;12992;50.884;13.668;2022-10-23T14:12:40;3.40;;;1.70;;
24961;SDS011;12992;50.884;13.668;2022-10-23T14:15:07;2.53;;;1.80;;
24961;SDS011;12992;50.884;13.668;2022-10-23T14:17:33;3.78;;;2.00;;
24961;SDS011;12992;50.884;13.668;2022-10-23T14:19:59;6.20;;;2.13;;
24961;SDS011;12992;50.884;13.668;2022-10-23T14:22:24;2.85;;;1.80;;
24961;SDS011;12992;50.884;13.668;2022-10-23T14:24:49;6.00;;;2.10;;
24961;SDS011;12992;50.884;13.668;2022-10-23T14:27:15;3.05;;;1.92;;
24961;SDS011;12992;50.884;13.668;2022-10-23T14:29:40;3.60;;;2.00;;
24961;SDS011;12992;50.884;13.668;2022-10-23T14:32:06;3.10;;;1.75;;
24961;SDS011;12992;50.884;13.668;2022-10-23T14:34:31;3.30;;;1.67;;
24961;SDS011;12992;50.884;13.668;2022-10-23T14:36:56;5.35;;;2.03;;
24961;SDS011;12992;50.884;13.668;2022-10-23T14:39:22;3.20;;;1.58;;
24961;SDS011;12992;50.884;13.668;2022-10-23T14:41:47;3.60;;;1.90;;
24961;SDS011;12992;50.884;13.668;2022-10-23T14:44:12;2.80;;;1.50;;
24961;SDS011;12992;50.884;13.668;2022-10-23T14:46:38;3.60;;;1.42;;
24961;SDS011;12992;50.884;13.668;2022-10-23T14:49:03;4.50;;;1.65;;
24961;SDS011;12992;50.884;13.668;2022-10-23T14:51:29;2.35;;;1.50;;
24961;SDS011;12992;50.884;13.668;2022-10-23T14:53:55;2.25;;;1.60;;
24961;SDS011;12992;50.884;13.668;2022-10-23T14:56:26;5.18;;;1.40;;
24961;SDS011;12992;50.884;13.668;2022-10-23T14:58:56;2.92;;;1.83;;
24961;SDS011;12992;50.884;13.668;2022-10-23T15:01:27;3.97;;;1.52;;
24961;SDS011;12992;50.884;13.668;2022-10-23T15:03:56;3.92;;;2.13;;
24961;SDS011;12992;50.884;13.668;2022-10-23T15:06:22;3.28;;;1.52;;
24961;SDS011;12992;50.884;13.668;2022-10-23T15:08:51;2.42;;;1.60;;
24961;SDS011;12992;50.884;13.668;2022-10-23T15:11:21;3.53;;;1.70;;
24961;SDS011;12992;50.884;13.668;2022-10-23T15:13:47;3.17;;;1.98;;
24961;SDS011;12992;50.884;13.668;2022-10-23T15:16:13;4.97;;;1.85;;
24961;SDS011;12992;50.884;13.668;2022-10-23T15:18:38;2.80;;;1.73;;
24961;SDS011;12992;50.884;13.668;2022-10-23T15:21:04;4.78;;;2.10;;
24961;SDS011;12992;50.884;13.668;2022-10-23T15:23:31;3.33;;;1.55;;
24961;SDS011;12992;50.884;13.668;2022-10-23T15:25:59;3.28;;;1.70;;
24961;SDS011;12992;50.884;13.668;2022-10-23T15:28:27;3.75;;;2.10;;
24961;SDS011;12992;50.884;13.668;2022-10-23T15:30:53;4.30;;;1.67;;
24961;SDS011;12992;50.884;13.668;2022-10-23T15:33:19;2.42;;;1.70;;
24961;SDS011;12992;50.884;13.668;2022-10-23T15:35:45;4.35;;;1.83;;
24961;SDS011;12992;50.884;13.668;2022-10-23T15:38:11;5.78;;;1.70;;
24961;SDS011;12992;50.884;13.668;2022-10-23T15:40:36;3.28;;;1.80;;
24961;SDS011;12992;50.884;13.668;2022-10-23T15:43:01;5.40;;;3.00;;
24961;SDS011;12992;50.884;13.668;2022-10-23T15:45:27;3.55;;;1.50;;
24961;SDS011;12992;50.884;13.668;2022-10-23T15:47:52;2.72;;;1.42;;
24961;SDS011;12992;50.884;13.668;2022-10-23T15:50:17;3.28;;;1.52;;
24961;SDS011;12992;50.884;13.668;2022-10-23T15:52:43;9.57;;;1.80;;
24961;SDS011;12992;50.884;13.668;2022-10-23T15:55:08;3.58;;;1.58;;
24961;SDS011;12992;50.884;13.668;2022-10-23T15:57:39;5.22;;;2.08;;
24961;SDS011;12992;50.884;13.668;2022-10-23T16:00:05;3.22;;;1.70;;
24961;SDS011;12992;50.884;13.668;2022-10-23T16:02:34;2.40;;;1.50;;
24961;SDS011;12992;50.884;13.668;2022-10-23T16:05:00;3.08;;;1.98;;
24961;SDS011;12992;50.884;13.668;2022-10-23T16:07:25;2.28;;;1.70;;
24961;SDS011;12992;50.884;13.668;2022-10-23T16:09:50;3.03;;;2.10;;
24961;SDS011;12992;50.884;13.668;2022-10-23T16:12:16;1.83;;;1.50;;
24961;SDS011;12992;50.884;13.668;2022-10-23T16:14:42;5.32;;;1.70;;
24961;SDS011;12992;50.884;13.668;2022-10-23T16:17:07;4.90;;;1.63;;
24961;SDS011;12992;50.884;13.668;2022-10-23T16:19:33;2.78;;;1.77;;
24961;SDS011;12992;50.884;13.668;2022-10-23T16:21:58;6.38;;;1.70;;
24961;SDS011;12992;50.884;13.668;2022-10-23T16:24:24;3.03;;;2.00;;
24961;SDS011;12992;50.884;13.668;2022-10-23T16:26:49;4.80;;;1.77;;
24961;SDS011;12992;50.884;13.668;2022-10-23T16:29:17;4.05;;;1.80;;
24961;SDS011;12992;50.884;13.668;2022-10-23T16:31:44;4.85;;;2.10;;
24961;SDS011;12992;50.884;13.668;2022-10-23T16:34:09;2.78;;;1.92;;
24961;SDS011;12992;50.884;13.668;2022-10-23T16:36:35;3.47;;;2.15;;
24961;SDS011;12992;50.884;13.668;2022-10-23T16:39:16;5.65;;;1.95;;
24961;SDS011;12992;50.884;13.668;2022-10-23T16:42:02;3.05;;;1.70;;
24961;SDS011;12992;50.884;13.668;2022-10-23T16:44:41;2.92;;;2.10;;
24961;SDS011;12992;50.884;13.668;2022-10-23T16:47:06;3.75;;;2.10;;
24961;SDS011;12992;50.884;13.668;2022-10-23T16:49:33;3.22;;;1.83;;
24961;SDS011;12992;50.884;13.668;2022-10-23T16:51:58;2.38;;;1.80;;
24961;SDS011;12992;50.884;13.668;2022-10-23T16:54:23;3.47;;;2.00;;